sensor_id;sensor_type;location;lat;lon;timestamp;pressure;altitude;pressure_sealevel;temperature;humidity
58690;BME280;44470;53.206;-6.106;2024-01-30T00:02:14;102277.63;;;21.62;43.07
58690;BME280;44470;53.206;-6.106;2024-01-30T00:04:41;102275.81;;;21.62;42.91
58690;BME280;44470;53.206;-6.106;2024-01-30T00:07:08;102280.31;;;21.63;43.23
58690;BME280;44470;53.206;-6.106;2024-01-30T00:09:34;102274.94;;;21.71;42.96
58690;BME280;44470;53.206;-6.106;2024-01-30T00:12:00;102281.22;;;21.67;42.48
58690;BME280;44470;53.206;-6.106;2024-01-30T00:14:26;102291.91;;;21.69;42.69
58690;BME280;44470;53.206;-6.106;2024-01-30T00:16:52;102290.13;;;21.61;43.07
58690;BME280;44470;53.206;-6.106;2024-01-30T00:19:17;102286.53;;;21.62;42.85
58690;BME280;44470;53.206;-6.106;2024-01-30T00:21:43;102291.91;;;21.62;42.77
58690;BME280;44470;53.206;-6.106;2024-01-30T00:24:09;102304.41;;;21.70;42.80
58690;BME280;44470;53.206;-6.106;2024-01-30T00:26:34;102301.75;;;21.63;42.91
58690;BME280;44470;53.206;-6.106;2024-01-30T00:29:00;102302.63;;;21.66;43.17
58690;BME280;44470;53.206;-6.106;2024-01-30T00:31:25;102309.78;;;21.67;42.56
58690;BME280;44470;53.206;-6.106;2024-01-30T00:33:51;102301.75;;;21.65;42.54
58690;BME280;44470;53.206;-6.106;2024-01-30T00:36:16;102296.38;;;21.67;42.68
58690;BME280;44470;53.206;-6.106;2024-01-30T00:38:41;102306.22;;;21.77;42.41
58690;BME280;44470;53.206;-6.106;2024-01-30T00:41:08;102302.63;;;21.69;42.60
58690;BME280;44470;53.206;-6.106;2024-01-30T00:43:33;102300.84;;;21.74;42.72
58690;BME280;44470;53.206;-6.106;2024-01-30T00:45:59;102305.31;;;21.73;42.76
58690;BME280;44470;53.206;-6.106;2024-01-30T00:48:24;102296.41;;;21.63;42.71
58690;BME280;44470;53.206;-6.106;2024-01-30T00:50:50;102299.06;;;21.76;42.26
58690;BME280;44470;53.206;-6.106;2024-01-30T00:53:15;102309.78;;;21.76;42.69
58690;BME280;44470;53.206;-6.106;2024-01-30T00:55:40;102316.94;;;21.77;42.55
58690;BME280;44470;53.206;-6.106;2024-01-30T00:58:06;102313.34;;;21.72;42.96
58690;BME280;44470;53.206;-6.106;2024-01-30T01:00:32;102316.91;;;21.80;42.51
58690;BME280;44470;53.206;-6.106;2024-01-30T01:02:57;102312.44;;;21.73;42.25
58690;BME280;44470;53.206;-6.106;2024-01-30T01:05:23;102317.81;;;21.76;42.33
58690;BME280;44470;53.206;-6.106;2024-01-30T01:07:48;102325.84;;;21.73;42.88
58690;BME280;44470;53.206;-6.106;2024-01-30T01:10:14;102324.94;;;21.78;42.23
58690;BME280;44470;53.206;-6.106;2024-01-30T01:12:41;102336.56;;;21.79;42.55
58690;BME280;44470;53.206;-6.106;2024-01-30T01:15:07;102333.91;;;21.79;42.49
58690;BME280;44470;53.206;-6.106;2024-01-30T01:17:35;102327.63;;;21.86;42.20
58690;BME280;44470;53.206;-6.106;2024-01-30T01:20:00;102329.41;;;21.84;41.88
58690;BME280;44470;53.206;-6.106;2024-01-30T01:22:26;102334.78;;;21.78;42.13
58690;BME280;44470;53.206;-6.106;2024-01-30T01:24:51;102324.97;;;21.75;42.11
58690;BME280;44470;53.206;-6.106;2024-01-30T01:27:16;102341.94;;;21.67;42.19
58690;BME280;44470;53.206;-6.106;2024-01-30T01:29:42;102334.78;;;21.69;42.75
58690;BME280;44470;53.206;-6.106;2024-01-30T01:32:08;102352.66;;;21.76;42.00
58690;BME280;44470;53.206;-6.106;2024-01-30T01:34:33;102344.63;;;21.74;42.26
58690;BME280;44470;53.206;-6.106;2024-01-30T01:36:59;102349.97;;;21.79;42.23
58690;BME280;44470;53.206;-6.106;2024-01-30T01:39:25;102351.78;;;21.69;42.06
58690;BME280;44470;53.206;-6.106;2024-01-30T01:41:50;102352.63;;;21.81;42.32
58690;BME280;44470;53.206;-6.106;2024-01-30T01:44:16;102352.63;;;21.85;41.99
58690;BME280;44470;53.206;-6.106;2024-01-30T01:46:42;102348.16;;;21.83;41.97
58690;BME280;44470;53.206;-6.106;2024-01-30T01:49:07;102350.84;;;21.83;41.88
58690;BME280;44470;53.206;-6.106;2024-01-30T01:51:33;102350.84;;;21.84;42.25
58690;BME280;44470;53.206;-6.106;2024-01-30T01:54:03;102362.50;;;21.77;42.00
58690;BME280;44470;53.206;-6.106;2024-01-30T01:56:29;102349.97;;;21.81;41.91
58690;BME280;44470;53.206;-6.106;2024-01-30T01:58:54;102355.31;;;21.81;42.23
58690;BME280;44470;53.206;-6.106;2024-01-30T02:01:20;102358.00;;;21.85;41.95
58690;BME280;44470;53.206;-6.106;2024-01-30T02:03:46;102367.81;;;21.88;41.85
58690;BME280;44470;53.206;-6.106;2024-01-30T02:06:15;102371.41;;;21.81;41.97
58690;BME280;44470;53.206;-6.106;2024-01-30T02:08:41;102376.78;;;21.79;41.79
58690;BME280;44470;53.206;-6.106;2024-01-30T02:11:07;102377.66;;;21.83;41.90
58690;BME280;44470;53.206;-6.106;2024-01-30T02:13:32;102387.47;;;21.88;41.91
58690;BME280;44470;53.206;-6.106;2024-01-30T02:15:57;102380.34;;;21.81;41.99
58690;BME280;44470;53.206;-6.106;2024-01-30T02:18:23;102377.66;;;21.81;41.70
58690;BME280;44470;53.206;-6.106;2024-01-30T02:20:48;102383.03;;;21.84;41.82
58690;BME280;44470;53.206;-6.106;2024-01-30T02:23:15;102384.78;;;21.88;41.86
58690;BME280;44470;53.206;-6.106;2024-01-30T02:25:40;102399.09;;;21.87;42.21
58690;BME280;44470;53.206;-6.106;2024-01-30T02:28:13;102392.81;;;21.87;41.68
58690;BME280;44470;53.206;-6.106;2024-01-30T02:30:39;102397.31;;;21.83;42.02
58690;BME280;44470;53.206;-6.106;2024-01-30T02:33:04;102400.88;;;21.85;41.59
58690;BME280;44470;53.206;-6.106;2024-01-30T02:35:29;102402.66;;;21.86;42.00
58690;BME280;44470;53.206;-6.106;2024-01-30T02:37:55;102399.09;;;21.87;41.79
58690;BME280;44470;53.206;-6.106;2024-01-30T02:40:20;102408.94;;;21.82;41.93
58690;BME280;44470;53.206;-6.106;2024-01-30T02:42:45;102405.34;;;21.78;41.86
58690;BME280;44470;53.206;-6.106;2024-01-30T02:45:11;102408.03;;;21.80;41.77
58690;BME280;44470;53.206;-6.106;2024-01-30T02:47:37;102408.94;;;21.85;42.07
58690;BME280;44470;53.206;-6.106;2024-01-30T02:50:03;102423.19;;;21.89;41.64
58690;BME280;44470;53.206;-6.106;2024-01-30T02:52:28;102425.00;;;21.91;41.67
58690;BME280;44470;53.206;-6.106;2024-01-30T02:54:54;102423.22;;;21.84;41.80
58690;BME280;44470;53.206;-6.106;2024-01-30T02:57:19;102420.53;;;21.84;41.43
58690;BME280;44470;53.206;-6.106;2024-01-30T02:59:44;102425.88;;;21.86;41.87
58690;BME280;44470;53.206;-6.106;2024-01-30T03:02:10;102428.56;;;21.86;41.74
58690;BME280;44470;53.206;-6.106;2024-01-30T03:04:35;102429.47;;;21.83;41.72
58690;BME280;44470;53.206;-6.106;2024-01-30T03:07:01;102432.16;;;21.86;41.71
58690;BME280;44470;53.206;-6.106;2024-01-30T03:09:26;102443.75;;;21.87;41.54
58690;BME280;44470;53.206;-6.106;2024-01-30T03:11:51;102445.56;;;21.86;41.51
58690;BME280;44470;53.206;-6.106;2024-01-30T03:14:17;102436.63;;;21.90;41.47
58690;BME280;44470;53.206;-6.106;2024-01-30T03:16:42;102452.69;;;21.87;41.84
58690;BME280;44470;53.206;-6.106;2024-01-30T03:19:08;102452.72;;;21.84;41.47
58690;BME280;44470;53.206;-6.106;2024-01-30T03:21:34;102450.03;;;21.87;41.56
58690;BME280;44470;53.206;-6.106;2024-01-30T03:24:00;102458.06;;;21.90;41.56
58690;BME280;44470;53.206;-6.106;2024-01-30T03:26:25;102448.22;;;21.88;41.41
58690;BME280;44470;53.206;-6.106;2024-01-30T03:28:50;102455.38;;;21.89;41.62
58690;BME280;44470;53.206;-6.106;2024-01-30T03:31:16;102449.13;;;21.85;41.92
58690;BME280;44470;53.206;-6.106;2024-01-30T03:33:42;102463.44;;;21.81;41.17
58690;BME280;44470;53.206;-6.106;2024-01-30T03:36:08;102470.59;;;21.76;42.11
58690;BME280;44470;53.206;-6.106;2024-01-30T03:38:34;102463.44;;;21.84;41.76
58690;BME280;44470;53.206;-6.106;2024-01-30T03:40:59;102468.78;;;21.90;41.57
58690;BME280;44470;53.206;-6.106;2024-01-30T03:43:25;102472.38;;;21.86;41.66
58690;BME280;44470;53.206;-6.106;2024-01-30T03:45:50;102475.91;;;21.87;41.60
58690;BME280;44470;53.206;-6.106;2024-01-30T03:48:16;102473.25;;;21.87;41.54
58690;BME280;44470;53.206;-6.106;2024-01-30T03:50:42;102477.72;;;21.86;41.51
58690;BME280;44470;53.206;-6.106;2024-01-30T03:53:07;102472.38;;;21.86;41.25
58690;BME280;44470;53.206;-6.106;2024-01-30T03:55:35;102475.03;;;21.75;41.29
58690;BME280;44470;53.206;-6.106;2024-01-30T03:58:01;102475.03;;;21.82;41.42
58690;BME280;44470;53.206;-6.106;2024-01-30T04:00:26;102473.25;;;21.85;41.83
58690;BME280;44470;53.206;-6.106;2024-01-30T04:02:52;102473.25;;;21.87;41.29
58690;BME280;44470;53.206;-6.106;2024-01-30T04:05:19;102479.50;;;21.81;41.10
58690;BME280;44470;53.206;-6.106;2024-01-30T04:07:47;102482.19;;;21.87;41.44
58690;BME280;44470;53.206;-6.106;2024-01-30T04:10:13;102490.22;;;21.81;41.90
58690;BME280;44470;53.206;-6.106;2024-01-30T04:12:39;102498.28;;;21.81;41.70
58690;BME280;44470;53.206;-6.106;2024-01-30T04:15:05;102504.50;;;21.82;41.42
58690;BME280;44470;53.206;-6.106;2024-01-30T04:17:30;102508.09;;;21.76;41.64
58690;BME280;44470;53.206;-6.106;2024-01-30T04:19:56;102501.84;;;21.69;41.59
58690;BME280;44470;53.206;-6.106;2024-01-30T04:22:21;102509.00;;;21.75;41.49
58690;BME280;44470;53.206;-6.106;2024-01-30T04:24:47;102509.88;;;21.80;41.36
58690;BME280;44470;53.206;-6.106;2024-01-30T04:27:12;102517.03;;;21.75;41.34
58690;BME280;44470;53.206;-6.106;2024-01-30T04:29:37;102523.28;;;21.83;41.65
58690;BME280;44470;53.206;-6.106;2024-01-30T04:32:03;102526.88;;;21.85;41.53
58690;BME280;44470;53.206;-6.106;2024-01-30T04:34:28;102528.63;;;21.75;41.48
58690;BME280;44470;53.206;-6.106;2024-01-30T04:36:54;102542.91;;;21.73;41.00
58690;BME280;44470;53.206;-6.106;2024-01-30T04:39:19;102534.00;;;21.86;41.14
58690;BME280;44470;53.206;-6.106;2024-01-30T04:41:44;102543.84;;;21.75;41.30
58690;BME280;44470;53.206;-6.106;2024-01-30T04:44:10;102555.44;;;21.82;41.14
58690;BME280;44470;53.206;-6.106;2024-01-30T04:46:36;102548.28;;;21.77;41.20
58690;BME280;44470;53.206;-6.106;2024-01-30T04:49:01;102551.88;;;21.75;41.08
58690;BME280;44470;53.206;-6.106;2024-01-30T04:51:26;102556.31;;;21.73;41.18
58690;BME280;44470;53.206;-6.106;2024-01-30T04:53:52;102559.91;;;21.75;41.34
58690;BME280;44470;53.206;-6.106;2024-01-30T04:56:17;102560.81;;;21.85;41.27
58690;BME280;44470;53.206;-6.106;2024-01-30T04:58:43;102567.06;;;21.82;41.28
58690;BME280;44470;53.206;-6.106;2024-01-30T05:01:09;102567.94;;;21.80;41.55
58690;BME280;44470;53.206;-6.106;2024-01-30T05:03:35;102570.63;;;21.76;41.24
58690;BME280;44470;53.206;-6.106;2024-01-30T05:06:00;102561.69;;;21.76;41.41
58690;BME280;44470;53.206;-6.106;2024-01-30T05:08:26;102564.38;;;21.71;41.12
58690;BME280;44470;53.206;-6.106;2024-01-30T05:10:52;102569.72;;;21.81;41.03
58690;BME280;44470;53.206;-6.106;2024-01-30T05:13:17;102564.38;;;21.82;40.93
58690;BME280;44470;53.206;-6.106;2024-01-30T05:15:43;102565.28;;;21.75;41.17
58690;BME280;44470;53.206;-6.106;2024-01-30T05:18:08;102569.75;;;21.76;40.73
58690;BME280;44470;53.206;-6.106;2024-01-30T05:20:33;102570.63;;;21.70;40.85
58690;BME280;44470;53.206;-6.106;2024-01-30T05:22:59;102583.16;;;21.79;40.76
58690;BME280;44470;53.206;-6.106;2024-01-30T05:25:24;102577.75;;;21.73;40.74
58690;BME280;44470;53.206;-6.106;2024-01-30T05:27:49;102589.34;;;21.72;41.05
58690;BME280;44470;53.206;-6.106;2024-01-30T05:30:15;102587.56;;;21.74;40.96
58690;BME280;44470;53.206;-6.106;2024-01-30T05:32:40;102592.09;;;21.78;40.71
58690;BME280;44470;53.206;-6.106;2024-01-30T05:35:06;102599.19;;;21.71;40.71
58690;BME280;44470;53.206;-6.106;2024-01-30T05:37:33;102597.44;;;21.75;40.86
58690;BME280;44470;53.206;-6.106;2024-01-30T05:39:58;102606.34;;;21.74;40.33
58690;BME280;44470;53.206;-6.106;2024-01-30T05:42:23;102609.03;;;21.69;40.64
58690;BME280;44470;53.206;-6.106;2024-01-30T05:44:49;102607.25;;;21.76;40.66
58690;BME280;44470;53.206;-6.106;2024-01-30T05:47:15;102603.66;;;21.72;40.76
58690;BME280;44470;53.206;-6.106;2024-01-30T05:49:40;102609.91;;;21.71;40.82
58690;BME280;44470;53.206;-6.106;2024-01-30T05:52:06;102610.78;;;21.72;41.29
58690;BME280;44470;53.206;-6.106;2024-01-30T05:54:31;102612.59;;;21.74;40.54
58690;BME280;44470;53.206;-6.106;2024-01-30T05:56:57;102615.28;;;21.77;40.66
58690;BME280;44470;53.206;-6.106;2024-01-30T05:59:22;102618.88;;;21.81;40.99
58690;BME280;44470;53.206;-6.106;2024-01-30T06:01:48;102617.09;;;21.77;40.59
58690;BME280;44470;53.206;-6.106;2024-01-30T06:04:13;102617.97;;;21.74;40.44
58690;BME280;44470;53.206;-6.106;2024-01-30T06:06:39;102630.50;;;21.77;40.68
58690;BME280;44470;53.206;-6.106;2024-01-30T06:09:05;102636.75;;;21.76;40.79
58690;BME280;44470;53.206;-6.106;2024-01-30T06:11:30;102639.44;;;21.79;41.01
58690;BME280;44470;53.206;-6.106;2024-01-30T06:13:56;102638.50;;;21.75;40.90
58690;BME280;44470;53.206;-6.106;2024-01-30T06:16:21;102639.44;;;21.76;40.58
58690;BME280;44470;53.206;-6.106;2024-01-30T06:18:47;102645.66;;;21.73;40.54
58690;BME280;44470;53.206;-6.106;2024-01-30T06:21:13;102634.91;;;21.69;40.48
58690;BME280;44470;53.206;-6.106;2024-01-30T06:23:39;102644.78;;;21.81;40.58
58690;BME280;44470;53.206;-6.106;2024-01-30T06:26:05;102643.88;;;21.82;40.38
58690;BME280;44470;53.206;-6.106;2024-01-30T06:28:30;102647.47;;;21.76;40.30
58690;BME280;44470;53.206;-6.106;2024-01-30T06:30:55;102649.25;;;21.80;40.57
58690;BME280;44470;53.206;-6.106;2024-01-30T06:33:21;102654.63;;;21.83;40.28
58690;BME280;44470;53.206;-6.106;2024-01-30T06:35:46;102659.97;;;21.77;40.66
58690;BME280;44470;53.206;-6.106;2024-01-30T06:38:11;102658.19;;;21.81;40.86
58690;BME280;44470;53.206;-6.106;2024-01-30T06:40:38;102663.53;;;21.76;40.25
58690;BME280;44470;53.206;-6.106;2024-01-30T06:43:04;102668.00;;;21.78;40.45
58690;BME280;44470;53.206;-6.106;2024-01-30T06:45:29;102668.03;;;21.83;40.09
58690;BME280;44470;53.206;-6.106;2024-01-30T06:47:55;102675.16;;;21.81;41.10
58690;BME280;44470;53.206;-6.106;2024-01-30T06:50:20;102674.28;;;21.85;40.87
58690;BME280;44470;53.206;-6.106;2024-01-30T06:52:46;102681.44;;;21.83;40.48
58690;BME280;44470;53.206;-6.106;2024-01-30T06:55:11;102681.44;;;21.86;40.84
58690;BME280;44470;53.206;-6.106;2024-01-30T06:57:37;102689.47;;;21.83;40.98
58690;BME280;44470;53.206;-6.106;2024-01-30T07:00:02;102694.81;;;21.78;40.78
58690;BME280;44470;53.206;-6.106;2024-01-30T07:02:28;102708.22;;;21.77;40.49
58690;BME280;44470;53.206;-6.106;2024-01-30T07:04:53;102706.47;;;21.85;40.53
58690;BME280;44470;53.206;-6.106;2024-01-30T07:07:19;102704.66;;;21.84;40.84
58690;BME280;44470;53.206;-6.106;2024-01-30T07:09:44;102710.03;;;21.84;40.55
58690;BME280;44470;53.206;-6.106;2024-01-30T07:12:09;102711.81;;;21.85;40.52
58690;BME280;44470;53.206;-6.106;2024-01-30T07:14:35;102715.38;;;21.81;40.71
58690;BME280;44470;53.206;-6.106;2024-01-30T07:17:00;102725.22;;;21.85;40.63
58690;BME280;44470;53.206;-6.106;2024-01-30T07:19:26;102724.31;;;21.86;40.94
58690;BME280;44470;53.206;-6.106;2024-01-30T07:21:51;102721.63;;;21.85;40.96
58690;BME280;44470;53.206;-6.106;2024-01-30T07:24:17;102710.91;;;21.88;40.90
58690;BME280;44470;53.206;-6.106;2024-01-30T07:26:42;102731.47;;;21.84;40.88
58690;BME280;44470;53.206;-6.106;2024-01-30T07:29:07;102731.47;;;21.87;40.62
58690;BME280;44470;53.206;-6.106;2024-01-30T07:31:33;102737.72;;;21.88;40.44
58690;BME280;44470;53.206;-6.106;2024-01-30T07:33:58;102728.78;;;21.83;40.26
58690;BME280;44470;53.206;-6.106;2024-01-30T07:36:23;102728.78;;;21.83;40.32
58690;BME280;44470;53.206;-6.106;2024-01-30T07:38:49;102732.38;;;21.86;39.86
58690;BME280;44470;53.206;-6.106;2024-01-30T07:41:14;102735.91;;;21.84;40.43
58690;BME280;44470;53.206;-6.106;2024-01-30T07:43:39;102736.81;;;21.78;40.29
58690;BME280;44470;53.206;-6.106;2024-01-30T07:46:05;102742.16;;;21.78;40.50
58690;BME280;44470;53.206;-6.106;2024-01-30T07:48:32;102752.00;;;21.84;40.20
58690;BME280;44470;53.206;-6.106;2024-01-30T07:50:59;102752.91;;;21.81;41.31
58690;BME280;44470;53.206;-6.106;2024-01-30T07:53:24;102762.72;;;21.84;41.30
58690;BME280;44470;53.206;-6.106;2024-01-30T07:55:50;102761.84;;;21.85;41.23
58690;BME280;44470;53.206;-6.106;2024-01-30T07:58:15;102767.19;;;21.80;41.19
58690;BME280;44470;53.206;-6.106;2024-01-30T08:00:40;102773.44;;;21.81;40.98
58690;BME280;44470;53.206;-6.106;2024-01-30T08:03:06;102774.31;;;21.76;40.94
58690;BME280;44470;53.206;-6.106;2024-01-30T08:05:31;102775.19;;;21.74;41.08
58690;BME280;44470;53.206;-6.106;2024-01-30T08:07:57;102781.47;;;21.76;41.00
58690;BME280;44470;53.206;-6.106;2024-01-30T08:10:22;102780.53;;;21.74;41.08
58690;BME280;44470;53.206;-6.106;2024-01-30T08:12:47;102787.72;;;21.80;41.01
58690;BME280;44470;53.206;-6.106;2024-01-30T08:15:13;102790.41;;;21.78;40.89
58690;BME280;44470;53.206;-6.106;2024-01-30T08:17:38;102796.66;;;21.82;40.85
58690;BME280;44470;53.206;-6.106;2024-01-30T08:20:04;102794.00;;;21.77;40.84
58690;BME280;44470;53.206;-6.106;2024-01-30T08:22:30;102800.22;;;21.74;40.72
58690;BME280;44470;53.206;-6.106;2024-01-30T08:24:55;102803.78;;;21.73;41.11
58690;BME280;44470;53.206;-6.106;2024-01-30T08:27:21;102809.16;;;21.76;40.86
58690;BME280;44470;53.206;-6.106;2024-01-30T08:29:46;102810.06;;;21.77;41.02
58690;BME280;44470;53.206;-6.106;2024-01-30T08:32:11;102810.06;;;21.77;40.65
58690;BME280;44470;53.206;-6.106;2024-01-30T08:34:37;102801.97;;;21.71;41.30
58690;BME280;44470;53.206;-6.106;2024-01-30T08:37:02;102814.50;;;21.73;40.69
58690;BME280;44470;53.206;-6.106;2024-01-30T08:39:28;102818.06;;;21.74;41.10
58690;BME280;44470;53.206;-6.106;2024-01-30T08:41:53;102824.34;;;21.76;40.66
58690;BME280;44470;53.206;-6.106;2024-01-30T08:44:19;102826.06;;;21.68;40.80
58690;BME280;44470;53.206;-6.106;2024-01-30T08:46:44;102824.31;;;21.68;40.90
58690;BME280;44470;53.206;-6.106;2024-01-30T08:49:10;102832.34;;;21.73;40.95
58690;BME280;44470;53.206;-6.106;2024-01-30T08:51:36;102826.06;;;21.68;40.64
58690;BME280;44470;53.206;-6.106;2024-01-30T08:54:02;102838.59;;;21.69;40.80
58690;BME280;44470;53.206;-6.106;2024-01-30T08:56:28;102839.47;;;21.71;40.88
58690;BME280;44470;53.206;-6.106;2024-01-30T08:58:53;102839.44;;;21.65;40.25
58690;BME280;44470;53.206;-6.106;2024-01-30T09:01:18;102840.41;;;21.71;40.94
58690;BME280;44470;53.206;-6.106;2024-01-30T09:03:44;102840.38;;;21.73;39.98
58690;BME280;44470;53.206;-6.106;2024-01-30T09:06:11;102847.59;;;21.80;40.20
58690;BME280;44470;53.206;-6.106;2024-01-30T09:08:36;102849.38;;;21.78;39.79
58690;BME280;44470;53.206;-6.106;2024-01-30T09:11:08;102862.78;;;21.75;39.91
58690;BME280;44470;53.206;-6.106;2024-01-30T09:13:33;102854.66;;;21.67;40.01
58690;BME280;44470;53.206;-6.106;2024-01-30T09:15:59;102862.75;;;21.73;39.84
58690;BME280;44470;53.206;-6.106;2024-01-30T09:18:24;102866.28;;;21.69;39.46
58690;BME280;44470;53.206;-6.106;2024-01-30T09:20:49;102867.16;;;21.67;39.75
58690;BME280;44470;53.206;-6.106;2024-01-30T09:23:15;102877.91;;;21.68;39.43
58690;BME280;44470;53.206;-6.106;2024-01-30T09:25:40;102881.47;;;21.69;39.49
58690;BME280;44470;53.206;-6.106;2024-01-30T09:28:05;102897.56;;;21.72;39.51
58690;BME280;44470;53.206;-6.106;2024-01-30T09:30:31;102890.38;;;21.68;39.88
58690;BME280;44470;53.206;-6.106;2024-01-30T09:32:56;102903.75;;;21.65;39.97
58690;BME280;44470;53.206;-6.106;2024-01-30T09:35:21;102902.81;;;21.59;39.82
58690;BME280;44470;53.206;-6.106;2024-01-30T09:37:47;102903.72;;;21.61;40.39
58690;BME280;44470;53.206;-6.106;2024-01-30T09:40:13;102901.03;;;21.61;40.33
58690;BME280;44470;53.206;-6.106;2024-01-30T09:42:39;102919.75;;;21.58;39.90
58690;BME280;44470;53.206;-6.106;2024-01-30T09:45:05;102914.44;;;21.60;40.20
58690;BME280;44470;53.206;-6.106;2024-01-30T09:47:41;102912.63;;;21.59;39.86
58690;BME280;44470;53.206;-6.106;2024-01-30T09:50:13;102922.47;;;21.61;40.26
58690;BME280;44470;53.206;-6.106;2024-01-30T09:52:39;102929.63;;;21.62;40.05
58690;BME280;44470;53.206;-6.106;2024-01-30T09:55:05;102924.25;;;21.59;40.28
58690;BME280;44470;53.206;-6.106;2024-01-30T09:57:31;102935.00;;;21.61;40.38
58690;BME280;44470;53.206;-6.106;2024-01-30T09:59:56;102939.44;;;21.60;40.45
58690;BME280;44470;53.206;-6.106;2024-01-30T10:02:22;102936.72;;;21.57;40.26
58690;BME280;44470;53.206;-6.106;2024-01-30T10:04:47;102918.91;;;21.62;40.74
58690;BME280;44470;53.206;-6.106;2024-01-30T10:07:13;102935.88;;;21.61;40.52
58690;BME280;44470;53.206;-6.106;2024-01-30T10:09:39;102919.06;;;21.75;40.37
58690;BME280;44470;53.206;-6.106;2024-01-30T10:12:05;102939.50;;;21.65;40.37
58690;BME280;44470;53.206;-6.106;2024-01-30T10:14:30;102935.03;;;21.64;40.23
58690;BME280;44470;53.206;-6.106;2024-01-30T10:16:57;102947.56;;;21.67;40.06
58690;BME280;44470;53.206;-6.106;2024-01-30T10:19:22;102945.75;;;21.66;40.73
58690;BME280;44470;53.206;-6.106;2024-01-30T10:21:47;102949.31;;;21.65;40.28
58690;BME280;44470;53.206;-6.106;2024-01-30T10:24:13;102934.97;;;21.59;40.62
58690;BME280;44470;53.206;-6.106;2024-01-30T10:26:39;102943.97;;;21.68;40.35
58690;BME280;44470;53.206;-6.106;2024-01-30T10:29:04;102940.41;;;21.64;40.32
58690;BME280;44470;53.206;-6.106;2024-01-30T10:31:30;102942.13;;;21.60;40.54
58690;BME280;44470;53.206;-6.106;2024-01-30T10:33:56;102959.97;;;21.61;40.79
58690;BME280;44470;53.206;-6.106;2024-01-30T10:36:22;102962.66;;;21.60;40.29
58690;BME280;44470;53.206;-6.106;2024-01-30T10:38:53;102963.59;;;21.63;40.40
58690;BME280;44470;53.206;-6.106;2024-01-30T10:41:22;102954.69;;;21.65;40.70
58690;BME280;44470;53.206;-6.106;2024-01-30T10:43:55;102960.00;;;21.60;40.59
58690;BME280;44470;53.206;-6.106;2024-01-30T10:46:23;102956.41;;;21.61;40.68
58690;BME280;44470;53.206;-6.106;2024-01-30T10:48:58;102959.97;;;21.61;40.66
58690;BME280;44470;53.206;-6.106;2024-01-30T10:51:27;102967.22;;;21.69;40.54
58690;BME280;44470;53.206;-6.106;2024-01-30T10:53:52;102962.69;;;21.63;40.83
58690;BME280;44470;53.206;-6.106;2024-01-30T10:56:20;102969.81;;;21.61;40.55
58690;BME280;44470;53.206;-6.106;2024-01-30T10:58:46;102971.59;;;21.59;40.56
58690;BME280;44470;53.206;-6.106;2024-01-30T11:01:12;102972.47;;;21.59;40.62
58690;BME280;44470;53.206;-6.106;2024-01-30T11:03:38;102979.63;;;21.60;40.58
58690;BME280;44470;53.206;-6.106;2024-01-30T11:06:03;102977.91;;;21.66;40.59
58690;BME280;44470;53.206;-6.106;2024-01-30T11:08:31;102986.81;;;21.63;40.59
58690;BME280;44470;53.206;-6.106;2024-01-30T11:10:57;102982.34;;;21.62;40.29
58690;BME280;44470;53.206;-6.106;2024-01-30T11:13:27;102976.13;;;21.65;40.44
58690;BME280;44470;53.206;-6.106;2024-01-30T11:15:52;102984.09;;;21.61;40.80
58690;BME280;44470;53.206;-6.106;2024-01-30T11:18:24;102986.84;;;21.65;40.51
58690;BME280;44470;53.206;-6.106;2024-01-30T11:20:50;102986.78;;;21.61;41.00
58690;BME280;44470;53.206;-6.106;2024-01-30T11:23:16;102991.31;;;21.64;40.87
58690;BME280;44470;53.206;-6.106;2024-01-30T11:25:43;103000.19;;;21.60;40.37
58690;BME280;44470;53.206;-6.106;2024-01-30T11:28:12;102993.91;;;21.59;40.64
58690;BME280;44470;53.206;-6.106;2024-01-30T11:30:38;103001.06;;;21.60;40.60
58690;BME280;44470;53.206;-6.106;2024-01-30T11:33:05;103015.34;;;21.59;40.47
58690;BME280;44470;53.206;-6.106;2024-01-30T11:35:37;103010.00;;;21.59;40.41
58690;BME280;44470;53.206;-6.106;2024-01-30T11:38:04;102997.50;;;21.61;40.54
58690;BME280;44470;53.206;-6.106;2024-01-30T11:40:30;102995.72;;;21.60;40.34
58690;BME280;44470;53.206;-6.106;2024-01-30T11:42:56;102997.59;;;21.68;40.19
58690;BME280;44470;53.206;-6.106;2024-01-30T11:45:23;103004.72;;;21.64;40.61
58690;BME280;44470;53.206;-6.106;2024-01-30T11:47:48;103002.88;;;21.60;40.20
58690;BME280;44470;53.206;-6.106;2024-01-30T11:50:14;103007.34;;;21.62;40.03
58690;BME280;44470;53.206;-6.106;2024-01-30T11:52:39;102996.59;;;21.58;40.45
58690;BME280;44470;53.206;-6.106;2024-01-30T11:55:05;103000.25;;;21.65;40.53
58690;BME280;44470;53.206;-6.106;2024-01-30T11:57:30;103003.81;;;21.63;40.78
58690;BME280;44470;53.206;-6.106;2024-01-30T11:59:56;102999.34;;;21.64;40.46
58690;BME280;44470;53.206;-6.106;2024-01-30T12:02:21;103002.84;;;21.58;40.45
58690;BME280;44470;53.206;-6.106;2024-01-30T12:04:47;102999.28;;;21.58;40.28
58690;BME280;44470;53.206;-6.106;2024-01-30T12:07:12;103003.81;;;21.67;40.31
58690;BME280;44470;53.206;-6.106;2024-01-30T12:09:41;103002.13;;;21.73;39.93
58690;BME280;44470;53.206;-6.106;2024-01-30T12:12:06;102994.00;;;21.66;40.20
58690;BME280;44470;53.206;-6.106;2024-01-30T12:14:32;102990.38;;;21.62;40.17
58690;BME280;44470;53.206;-6.106;2024-01-30T12:16:57;102988.63;;;21.66;40.48
58690;BME280;44470;53.206;-6.106;2024-01-30T12:19:23;102978.75;;;21.61;40.23
58690;BME280;44470;53.206;-6.106;2024-01-30T12:21:56;102976.91;;;21.57;40.26
58690;BME280;44470;53.206;-6.106;2024-01-30T12:24:22;102964.47;;;21.61;40.11
58690;BME280;44470;53.206;-6.106;2024-01-30T12:26:47;102972.50;;;21.62;40.19
58690;BME280;44470;53.206;-6.106;2024-01-30T12:29:14;102959.97;;;21.58;40.04
58690;BME280;44470;53.206;-6.106;2024-01-30T12:31:41;102960.06;;;21.68;40.17
58690;BME280;44470;53.206;-6.106;2024-01-30T12:34:07;102954.63;;;21.61;40.41